Terminal Aerodrome Forecast
Issued by NWS Sterling, VA

Home | Current Version | Previous Version | Text Only | Print | Product List | Glossary On
Versions: 1 2 3 4 5 6 7 8 9 10 11 12 13 14 15 16 17 18 19 20 21 22 23 24 25 26
670
FTUS41 KLWX 290535
TAFCHO
TAF
KCHO 290535Z 2906/3006 12005KT 3SM SHRA OVC005
     FM291800 10008KT 3SM +SHRA VCTS OVC005CB=

USA.gov is the U.S. government's official web portal to all federal, state and local government web resources and services.